الصفحة الرئيسية
METAR-TAF:

METAR-TAF

مطار :

مطار انجمينا الدولي

انجمينا, تشاد

دائرة عرض: 12-08N, خط طول: 015-02E, ارتفاع: 295 متر

مراقبة الطقس الحالي

تاريخ ووقت الإصدار 2ساعات و 2 دقيقة قبل الساعة 07:00UTC
ريح 11 عقدة من الشمال
درجة الحرارة 33°درجة مئوية
الرطوبة 10%
ضغط 1008 hPa
الرؤية: 6000 متر

METAR: FTTJ 190700Z 01011KT 6000 NSC 33/M03 Q1008 NOSIG

زمن: 10:02 (09:02 UTC)

توقعات

تاريخ ووقت الإصدار 3ساعات و 47 دقيقة قبل الساعة 05:15UTC
التوقعات صالحة من19 الساعة 06 UTC إلى 20 الساعة 12 UTC
ريح 10 عقدة من الشمال
الرؤية: 7000 متر
مؤقت
من 19 الساعة 06 UTC إلى 19 الساعة 08 UTC
الرؤية: 4000 متر
غبار
أصبح
من 19 الساعة 12 UTC إلى 19 الساعة 14 UTC
ريح 10 عقدة من الجنوب/الجنوب الشرقي

TAF: FTTJ 190515Z 1906/2012 01010KT 7000 NSC TEMPO 1906/1908 4000 DU BECMG 1912/1914 16010KT

أرصاد الطقس والتوقعات من أكثر من 4000 مطار (تقارير الطقس للمطار METAR والتنبؤ بالطقس بالمطارTAF).

المحطات المتاحة هي النقط الصفراء والحمراء على الخريطة.

حرك المؤشر فوق النقطة لمعرفة اسم المحطة.

ثم انقر لمعرفة أرصاد وتوقعات الطقس.

لتغيير الخارطة: اضغط على الأزرار الخضراء مع رمز الصليب الأسود للتكبير. على الزر الأخضر مع شرطة للتصغير، أو على الأسهم الخضراء للخرائط المجاورة.


METAR-TAF: